Time;durP1;ratioP1;P1;durP2;ratioP2;P2;SDS_P1;SDS_P2;PMS_P1;PMS_P2;Temp;Humidity;BMP_temperature;BMP_pressure;BME280_temperature;BME280_humidity;BME280_pressure;Samples;Min_cycle;Max_cycle;Signal;HPM_P1;HPM_P2
2021/04/11 00:01:23;;;;;;;23.38;13.55;;;;;;;5.31;47.97;100349.97;3496111;28;20532;-45
2021/04/11 00:03:07;;;;;;;27.25;13.10;;;;;;;5.29;47.92;100354.13;3494127;28;20049;-45
2021/04/11 00:04:51;;;;;;;21.27;12.07;;;;;;;5.25;48.66;100354.81;3495971;28;20060;-45
2021/04/11 00:06:32;;;;;;;22.80;11.95;;;;;;;5.22;48.13;100358.13;3493936;28;20052;-45
2021/04/11 00:08:15;;;;;;;22.10;12.32;;;;;;;5.20;48.30;100353.72;3495588;28;20051;-46
2021/04/11 00:09:56;;;;;;;24.15;11.95;;;;;;;5.16;48.11;100360.41;3494257;28;20052;-46
2021/04/11 00:11:38;;;;;;;24.08;12.10;;;;;;;5.15;48.06;100359.53;3493780;28;20118;-45
2021/04/11 00:13:25;;;;;;;25.80;12.13;;;;;;;5.14;48.48;100362.03;3494233;28;20045;-45
2021/04/11 00:15:08;;;;;;;21.20;11.88;;;;;;;5.11;48.06;100367.03;3493562;28;20056;-45
2021/04/11 00:16:49;;;;;;;25.13;11.88;;;;;;;5.11;48.63;100367.03;3495804;28;20505;-46
2021/04/11 00:18:31;;;;;;;19.67;11.45;;;;;;;5.10;48.27;100365.28;3493090;28;20052;-46
2021/04/11 00:20:14;;;;;;;21.42;11.93;;;;;;;5.09;48.97;100366.94;3495202;28;20394;-50
2021/04/11 00:21:55;;;;;;;21.35;12.05;;;;;;;5.09;48.80;100371.22;3494606;28;20471;-46
2021/04/11 00:23:36;;;;;;;24.83;12.48;;;;;;;5.07;48.62;100368.56;3493626;28;20552;-46
2021/04/11 00:25:20;;;;;;;21.67;11.68;;;;;;;5.06;48.83;100365.91;3495694;28;20056;-44
2021/04/11 00:27:02;;;;;;;20.90;11.95;;;;;;;5.05;49.02;100366.75;3493916;28;20418;-49
2021/04/11 00:28:43;;;;;;;26.52;12.18;;;;;;;5.04;48.77;100362.41;3495826;28;20109;-52
2021/04/11 00:30:26;;;;;;;20.90;11.98;;;;;;;5.01;48.35;100367.38;3493142;28;20409;-51
2021/04/11 00:32:08;;;;;;;23.92;11.70;;;;;;;4.97;48.46;100363.78;3494628;28;20052;-51
2021/04/11 00:33:49;;;;;;;23.60;12.40;;;;;;;4.94;49.23;100367.13;3494741;28;20051;-51
2021/04/11 00:35:32;;;;;;;25.75;12.57;;;;;;;4.89;49.35;100355.72;3493525;28;20102;-49
2021/04/11 00:37:13;;;;;;;22.90;12.45;;;;;;;4.86;48.58;100365.00;3495419;28;20048;-51
2021/04/11 00:38:54;;;;;;;25.10;12.75;;;;;;;4.81;49.10;100359.63;3493205;28;20048;-50
2021/04/11 00:40:38;;;;;;;25.63;12.18;;;;;;;4.75;48.77;100359.34;3495778;28;20060;-50
2021/04/11 00:42:26;;;;;;;24.33;12.25;;;;;;;4.69;49.30;100372.78;3493137;28;20489;-51
2021/04/11 00:44:07;;;;;;;22.80;11.60;;;;;;;4.66;49.12;100371.75;3493766;28;20107;-45
2021/04/11 00:45:56;;;;;;;22.27;12.32;;;;;;;4.63;49.76;100375.03;3495806;28;20053;-45
2021/04/11 00:47:39;;;;;;;26.55;12.52;;;;;;;4.61;49.59;100379.22;3493256;28;20052;-45
2021/04/11 00:49:26;;;;;;;21.83;11.52;;;;;;;4.60;49.46;100377.47;3497303;28;20454;-44
2021/04/11 00:51:12;;;;;;;25.02;12.48;;;;;;;4.59;49.96;100379.13;3496728;28;20052;-48
2021/04/11 00:52:53;;;;;;;25.58;12.30;;;;;;;4.57;50.41;100372.19;3495807;28;20076;-49
2021/04/11 00:54:35;;;;;;;23.20;12.13;;;;;;;4.56;50.26;100373.84;3497829;28;20053;-50
2021/04/11 00:56:36;;;;;;;25.35;12.02;;;;;;;4.54;50.27;100374.59;3495379;28;20080;-51
2021/04/11 00:58:21;;;;;;;22.60;12.13;;;;;;;4.51;49.87;100380.47;3498726;28;20496;-45
2021/04/11 01:00:04;;;;;;;24.20;11.63;;;;;;;4.50;49.96;100372.69;3496361;28;20057;-50
2021/04/11 01:01:46;;;;;;;20.25;11.57;;;;;;;4.48;50.36;100375.19;3495446;28;20052;-51
2021/04/11 01:03:30;;;;;;;24.90;11.48;;;;;;;4.47;50.59;100378.53;3497511;28;20084;-50
2021/04/11 01:05:16;;;;;;;23.02;12.30;;;;;;;4.45;50.84;100375.03;3495352;28;20056;-51
2021/04/11 01:07:07;;;;;;;23.80;12.18;;;;;;;4.44;50.05;100374.94;3498231;28;20434;-50
2021/04/11 01:08:58;;;;;;;22.23;10.65;;;;;;;4.41;50.16;100370.53;3495002;28;20069;-45
2021/04/11 01:10:45;;;;;;;21.00;12.07;;;;;;;4.40;50.84;100377.34;3495782;28;20048;-45
2021/04/11 01:12:26;;;;;;;20.67;10.65;;;;;;;4.38;50.62;100373.81;3496531;28;20421;-50
2021/04/11 01:14:08;;;;;;;20.20;10.98;;;;;;;4.37;51.26;100378.88;3494313;28;20449;-51
2021/04/11 01:15:50;;;;;;;21.80;12.43;;;;;;;4.34;51.39;100381.31;3497746;28;20076;-45
2021/04/11 01:17:31;;;;;;;25.70;12.55;;;;;;;4.33;51.05;100379.53;3495685;28;20114;-50
2021/04/11 01:19:18;;;;;;;33.78;15.18;;;;;;;4.33;51.34;100382.97;3497533;28;20056;-46
2021/04/11 01:21:04;;;;;;;33.10;16.40;;;;;;;4.31;50.62;100374.31;3496531;28;20076;-45
2021/04/11 01:22:58;;;;;;;30.65;15.57;;;;;;;4.27;51.21;100379.25;3495324;28;20044;-45
2021/04/11 01:24:44;;;;;;;24.63;13.30;;;;;;;4.22;51.54;100373.88;3497688;28;20081;-45
2021/04/11 01:26:26;;;;;;;24.00;12.40;;;;;;;4.19;51.15;100376.28;3494983;28;20567;-46
2021/04/11 01:28:11;;;;;;;23.48;11.73;;;;;;;4.16;51.56;100377.03;3497083;28;20067;-45
2021/04/11 01:29:54;;;;;;;22.77;12.80;;;;;;;4.13;51.52;100376.84;3496205;28;20053;-45
2021/04/11 01:31:35;;;;;;;24.55;13.18;;;;;;;4.09;51.44;100374.94;3495971;28;20052;-45
2021/04/11 01:33:20;;;;;;;22.60;12.77;;;;;;;4.04;52.05;100377.28;3497091;28;20505;-45
2021/04/11 01:35:02;;;;;;;29.83;13.73;;;;;;;4.00;51.58;100377.94;3495254;28;20048;-45
2021/04/11 01:36:45;;;;;;;25.08;14.02;;;;;;;3.98;51.38;100378.63;3497887;28;20087;-45
2021/04/11 01:38:27;;;;;;;25.45;13.18;;;;;;;3.95;51.51;100368.22;3496190;28;20053;-50
2021/04/11 01:40:13;;;;;;;24.73;13.82;;;;;;;3.92;51.64;100379.19;3496121;28;20076;-51
2021/04/11 01:41:55;;;;;;;26.58;13.23;;;;;;;3.90;52.36;100377.38;3497061;28;20181;-50
2021/04/11 01:43:37;;;;;;;22.63;11.27;;;;;;;3.86;52.83;100373.78;3495334;28;20051;-52
2021/04/11 01:45:20;;;;;;;23.70;12.25;;;;;;;3.83;53.04;100376.16;3497326;28;20052;-49
2021/04/11 01:47:03;;;;;;;25.50;12.88;;;;;;;3.79;53.13;100371.69;3495668;28;20114;-45
2021/04/11 01:48:45;;;;;;;25.05;13.57;;;;;;;3.75;52.48;100373.19;3497327;28;20425;-45
2021/04/11 01:50:27;;;;;;;20.77;11.15;;;;;;;3.71;51.21;100376.41;3495145;28;20482;-47
2021/04/11 01:52:11;;;;;;;19.05;9.93;;;;;;;3.69;50.82;100375.44;3495445;28;20048;-45
2021/04/11 01:53:53;;;;;;;19.80;11.15;;;;;;;3.67;51.29;100373.63;3497112;28;20084;-45
2021/04/11 01:55:36;;;;;;;20.02;10.95;;;;;;;3.64;51.42;100379.44;3495230;28;20052;-49
2021/04/11 01:57:21;;;;;;;24.02;11.60;;;;;;;3.64;51.86;100379.44;3497123;28;20052;-49
2021/04/11 01:59:07;;;;;;;23.40;11.60;;;;;;;3.64;52.53;100388.00;3494936;28;20052;-50
2021/04/11 02:00:58;;;;;;;24.48;12.23;;;;;;;3.62;52.95;100386.19;3497151;28;20274;-52
2021/04/11 02:02:40;;;;;;;20.55;12.18;;;;;;;3.61;53.37;100379.28;3496572;28;20048;-45
2021/04/11 02:04:22;;;;;;;25.35;12.98;;;;;;;3.58;53.54;100382.56;3495465;28;20095;-50
2021/04/11 02:06:06;;;;;;;24.25;12.32;;;;;;;3.57;53.75;100385.06;3497471;28;20052;-46
2021/04/11 02:07:50;;;;;;;22.88;11.77;;;;;;;3.54;53.72;100383.22;3494842;28;20048;-45
2021/04/11 02:09:34;;;;;;;26.52;12.60;;;;;;;3.53;53.71;100384.00;3497715;28;20044;-50
2021/04/11 02:11:16;;;;;;;23.67;11.02;;;;;;;3.51;53.63;100382.19;3494789;28;20102;-51
2021/04/11 02:12:58;;;;;;;22.33;12.35;;;;;;;3.48;52.30;100388.00;3494913;28;20501;-51
2021/04/11 02:14:41;;;;;;;19.92;11.90;;;;;;;3.43;52.00;100392.00;3496050;28;20063;-49
2021/04/11 02:16:26;;;;;;;21.67;12.38;;;;;;;3.40;52.63;100391.84;3494807;28;20153;-51
2021/04/11 02:18:11;;;;;;;23.10;11.98;;;;;;;3.39;52.71;100392.66;3497387;28;20159;-50
2021/04/11 02:19:53;;;;;;;26.00;12.57;;;;;;;3.37;52.87;100395.13;3495060;28;20059;-45
2021/04/11 02:21:36;;;;;;;23.38;13.02;;;;;;;3.35;53.43;100396.72;3496422;28;20516;-44
2021/04/11 02:23:18;;;;;;;22.15;12.35;;;;;;;3.31;53.16;100391.34;3495707;28;20417;-51
2021/04/11 02:25:00;;;;;;;23.45;12.52;;;;;;;3.28;53.09;100398.06;3494714;28;20052;-51
2021/04/11 02:26:42;;;;;;;25.23;12.82;;;;;;;3.25;53.48;100397.91;3496689;28;20064;-52
2021/04/11 02:28:26;;;;;;;24.25;14.07;;;;;;;3.24;53.87;100398.72;3494857;28;20668;-45
2021/04/11 02:30:11;;;;;;;34.10;17.00;;;;;;;3.25;53.74;100402.16;3497727;28;20048;-44
2021/04/11 02:31:52;;;;;;;35.58;18.25;;;;;;;3.26;53.10;100407.38;3494646;28;20093;-45
2021/04/11 02:33:34;;;;;;;29.38;16.15;;;;;;;3.26;53.02;100407.38;3495520;28;20048;-45
2021/04/11 02:35:20;;;;;;;28.02;16.50;;;;;;;3.27;54.00;100403.13;3495879;28;20056;-49
2021/04/11 02:37:05;;;;;;;28.45;14.32;;;;;;;3.26;53.26;100406.50;3494535;28;20049;-51
2021/04/11 02:38:50;;;;;;;21.08;11.75;;;;;;;3.25;54.73;100409.84;3496878;28;20052;-52
2021/04/11 02:40:34;;;;;;;24.25;12.43;;;;;;;3.24;54.77;100405.50;3494639;28;20145;-50
2021/04/11 02:42:19;;;;;;;27.55;13.80;;;;;;;3.24;54.46;100411.53;3496256;28;20052;-49
2021/04/11 02:44:01;;;;;;;23.80;12.00;;;;;;;3.21;53.62;100416.50;3494980;28;20053;-52
2021/04/11 02:45:45;;;;;;;23.40;12.35;;;;;;;3.18;53.85;100415.44;3494584;28;20041;-50
2021/04/11 02:47:26;;;;;;;23.30;12.45;;;;;;;3.16;53.40;100410.22;3496241;28;20052;-51
2021/04/11 02:49:10;;;;;;;22.80;12.88;;;;;;;3.13;52.50;100411.75;3494275;28;20080;-49
2021/04/11 02:50:52;;;;;;;27.40;14.43;;;;;;;3.09;53.44;100421.81;3496711;28;20094;-49
2021/04/11 02:52:38;;;;;;;25.73;14.57;;;;;;;3.08;53.25;100424.28;3493995;28;20051;-51
2021/04/11 02:54:22;;;;;;;34.05;15.25;;;;;;;3.07;54.24;100423.41;3495172;28;20086;-53
2021/04/11 02:56:04;;;;;;;23.90;14.43;;;;;;;3.06;54.06;100429.31;3495647;28;20098;-52
2021/04/11 02:57:46;;;;;;;28.70;13.77;;;;;;;3.04;53.25;100424.94;3494185;28;20173;-51
2021/04/11 02:59:28;;;;;;;22.75;12.52;;;;;;;3.02;53.65;100423.97;3496541;28;20048;-49
2021/04/11 03:01:13;;;;;;;26.25;12.43;;;;;;;3.01;54.22;100435.91;3494405;28;20056;-50
2021/04/11 03:02:55;;;;;;;22.40;11.27;;;;;;;3.00;55.02;100430.69;3496549;28;20513;-53
2021/04/11 03:04:36;;;;;;;25.20;13.85;;;;;;;3.00;55.47;100430.69;3493243;28;20064;-50
2021/04/11 03:06:21;;;;;;;27.38;14.75;;;;;;;3.00;54.99;100436.69;3494313;28;20533;-53
2021/04/11 03:08:05;;;;;;;29.80;14.88;;;;;;;2.98;55.31;100428.03;3496017;28;20049;-52
2021/04/11 03:09:50;;;;;;;28.85;13.23;;;;;;;2.97;55.21;100433.06;3494217;28;20076;-50
2021/04/11 03:11:37;;;;;;;23.70;12.43;;;;;;;2.95;55.45;100432.97;3495761;28;20056;-51
2021/04/11 03:13:21;;;;;;;29.25;12.93;;;;;;;2.96;55.88;100439.88;3492452;28;20430;-51
2021/04/11 03:15:05;;;;;;;24.00;12.70;;;;;;;2.95;55.03;100432.97;3496301;28;20056;-46
2021/04/11 03:16:47;;;;;;;25.80;12.10;;;;;;;2.95;54.67;100444.91;3494851;28;20450;-45
2021/04/11 03:18:30;;;;;;;23.05;12.65;;;;;;;2.96;54.72;100441.53;3494067;28;20421;-46
2021/04/11 03:20:16;;;;;;;21.17;11.68;;;;;;;2.96;55.03;100446.66;3496285;28;20049;-47
2021/04/11 03:21:58;;;;;;;24.10;12.10;;;;;;;2.96;54.34;100450.13;3494307;28;20048;-46
2021/04/11 03:23:40;;;;;;;21.65;12.02;;;;;;;2.97;53.37;100453.56;3496685;28;20091;-45
2021/04/11 03:25:22;;;;;;;24.92;12.10;;;;;;;2.96;53.14;100462.03;3494102;28;20055;-45
2021/04/11 03:27:10;;;;;;;22.67;11.65;;;;;;;2.96;53.21;100462.03;3495059;28;20079;-45
2021/04/11 03:28:59;;;;;;;20.10;11.57;;;;;;;2.94;52.88;100466.19;3496162;28;20053;-45
2021/04/11 03:30:44;;;;;;;21.35;11.13;;;;;;;2.96;53.99;100467.16;3494137;28;20052;-51
2021/04/11 03:32:30;;;;;;;19.58;11.23;;;;;;;2.94;53.89;100461.97;3496431;28;20501;-50
2021/04/11 03:34:15;;;;;;;21.75;12.18;;;;;;;2.96;55.42;100464.59;3493823;28;20048;-52
2021/04/11 03:35:58;;;;;;;21.55;11.85;;;;;;;2.96;55.89;100468.06;3494431;28;20080;-44
2021/04/11 03:37:40;;;;;;;24.83;11.95;;;;;;;2.96;55.34;100472.28;3495843;28;20052;-50
2021/04/11 03:39:22;;;;;;;24.90;12.90;;;;;;;2.97;55.38;100471.50;3494182;28;20064;-45
2021/04/11 03:41:05;;;;;;;26.42;12.75;;;;;;;2.98;55.77;100476.72;3496151;28;20106;-45
2021/04/11 03:42:50;;;;;;;25.90;13.50;;;;;;;3.02;55.77;100475.22;3493716;28;20048;-45
2021/04/11 03:44:32;;;;;;;25.33;13.52;;;;;;;3.08;55.49;100481.59;3495683;28;20055;-45
2021/04/11 03:46:18;;;;;;;30.63;13.48;;;;;;;3.13;55.62;100475.81;3494247;28;20106;-45
2021/04/11 03:48:06;;;;;;;26.08;12.98;;;;;;;3.20;55.01;100478.81;3494748;28;20053;-50
2021/04/11 03:49:53;;;;;;;23.80;13.13;;;;;;;3.25;54.62;100481.63;3495826;28;20051;-50
2021/04/11 03:51:39;;;;;;;25.00;13.10;;;;;;;3.29;53.44;100488.69;3493998;28;20086;-45
2021/04/11 03:53:25;;;;;;;28.60;15.05;;;;;;;3.33;54.18;100487.19;3496154;28;20056;-44
2021/04/11 03:55:15;;;;;;;27.00;14.23;;;;;;;3.38;54.96;100490.88;3494090;28;20053;-45
2021/04/11 03:57:07;;;;;;;23.80;12.88;;;;;;;3.41;54.61;100491.94;3493714;28;20128;-46
2021/04/11 03:58:53;;;;;;;28.95;13.77;;;;;;;3.44;54.57;100492.13;3495589;28;20137;-45
2021/04/11 04:00:41;;;;;;;24.08;14.15;;;;;;;3.48;54.29;100495.75;3493544;28;20059;-45
2021/04/11 04:02:26;;;;;;;22.92;12.95;;;;;;;3.51;53.47;100497.59;3495374;28;20045;-45
2021/04/11 04:04:15;;;;;;;25.83;12.65;;;;;;;3.55;53.88;100500.41;3493890;28;20118;-45
2021/04/11 04:06:01;;;;;;;19.27;11.05;;;;;;;3.58;51.89;100497.16;3493679;28;20049;-50
2021/04/11 04:07:47;;;;;;;21.73;12.27;;;;;;;3.64;53.81;100502.59;3495971;28;20101;-45
2021/04/11 04:09:29;;;;;;;24.88;11.38;;;;;;;3.72;53.86;100503.00;3493667;28;20627;-44
2021/04/11 04:11:18;;;;;;;25.30;11.75;;;;;;;3.79;53.67;100502.56;3495888;28;20053;-45
2021/04/11 04:13:09;;;;;;;23.83;11.57;;;;;;;3.87;53.63;100497.84;3493003;28;20048;-45
2021/04/11 04:15:09;;;;;;;21.52;11.35;;;;;;;3.96;52.87;100508.59;3493768;28;20052;-45
2021/04/11 04:17:01;;;;;;;21.20;11.60;;;;;;;4.03;52.40;100501.28;3481874;28;20056;-44
2021/04/11 04:18:59;;;;;;;23.60;11.02;;;;;;;4.12;52.64;100503.47;3492696;28;20083;-45
2021/04/11 04:20:47;;;;;;;20.65;11.23;;;;;;;4.22;52.82;100508.28;3493458;28;20514;-46
2021/04/11 04:22:40;;;;;;;22.63;12.02;;;;;;;4.35;52.85;100511.50;3495136;28;20048;-50
2021/04/11 04:24:34;;;;;;;19.90;11.05;;;;;;;4.46;52.44;100510.38;3495017;28;20051;-49
2021/04/11 04:26:38;;;;;;;23.33;12.32;;;;;;;4.58;52.14;100516.16;3496743;28;20587;-49
2021/04/11 04:28:37;;;;;;;20.88;11.25;;;;;;;4.69;50.28;100518.34;3497486;28;20060;-51
2021/04/11 04:30:23;;;;;;;21.75;11.80;;;;;;;4.77;50.41;100520.50;3495707;28;20048;-50
2021/04/11 04:32:22;;;;;;;21.65;11.40;;;;;;;4.89;49.75;100522.84;3497808;28;20052;-46
2021/04/11 04:34:15;;;;;;;24.38;13.57;;;;;;;4.98;50.38;100519.84;3496962;28;20059;-45
2021/04/11 04:36:12;;;;;;;24.92;12.65;;;;;;;5.12;50.56;100530.81;3495842;28;20101;-45
2021/04/11 04:38:07;;;;;;;20.08;11.88;;;;;;;5.23;49.88;100521.03;3498209;28;20052;-53
2021/04/11 04:39:54;;;;;;;20.77;11.27;;;;;;;5.34;49.90;100525.91;3497340;28;20482;-52
2021/04/11 04:41:43;;;;;;;19.23;10.77;;;;;;;5.44;49.12;100532.38;3495845;28;20635;-45
2021/04/11 04:43:34;;;;;;;20.40;10.77;;;;;;;5.53;49.16;100532.81;3498068;28;20052;-45
2021/04/11 04:45:24;;;;;;;24.00;11.85;;;;;;;5.62;48.56;100532.34;3495524;28;20525;-44
2021/04/11 04:47:13;;;;;;;21.60;12.18;;;;;;;5.71;48.80;100530.25;3496351;28;20045;-45
2021/04/11 04:48:59;;;;;;;20.63;11.57;;;;;;;5.78;48.01;100526.25;3498398;28;20052;-45
2021/04/11 04:50:46;;;;;;;24.50;11.27;;;;;;;5.87;47.69;100531.84;3495925;28;20049;-51
2021/04/11 04:52:31;;;;;;;20.65;11.32;;;;;;;5.96;47.78;100527.91;3497974;28;20052;-50
2021/04/11 04:54:22;;;;;;;23.25;12.15;;;;;;;6.02;47.01;100529.06;3495872;28;20083;-50
2021/04/11 04:56:07;;;;;;;19.05;11.15;;;;;;;6.08;47.39;100533.63;3496137;28;20049;-49
2021/04/11 04:57:53;;;;;;;21.45;11.57;;;;;;;6.13;47.05;100532.13;3497868;28;20076;-51
2021/04/11 04:59:51;;;;;;;24.25;12.30;;;;;;;6.21;47.49;100535.09;3495052;28;20045;-50
2021/04/11 05:01:37;;;;;;;21.85;12.13;;;;;;;6.30;47.60;100531.22;3498228;28;20052;-49
2021/04/11 05:03:24;;;;;;;19.23;11.13;;;;;;;6.37;46.80;100527.22;3496023;28;20048;-52
2021/04/11 05:05:08;;;;;;;20.38;11.57;;;;;;;6.43;47.32;100532.63;3495979;28;20403;-46
2021/04/11 05:06:52;;;;;;;;;;;;;;;6.54;47.05;100537.38;3497468;28;20438;-50
2021/04/11 05:08:40;;;;;;;25.23;13.48;;;;;;;6.60;47.29;100538.53;3495349;28;20023;-51
2021/04/11 05:10:26;;;;;;;21.58;12.60;;;;;;;6.69;47.97;100538.94;3497870;28;20048;-51
2021/04/11 05:12:14;;;;;;;24.02;11.90;;;;;;;6.81;47.31;100538.56;3495777;28;20048;-45
2021/04/11 05:14:05;;;;;;;23.42;12.75;;;;;;;6.92;46.25;100541.59;3494927;28;20076;-45
2021/04/11 05:15:53;;;;;;;22.27;11.90;;;;;;;7.04;46.19;100543.88;3497175;28;20063;-45
2021/04/11 05:17:38;;;;;;;19.42;11.75;;;;;;;7.16;46.52;100544.38;3495245;28;20048;-45
2021/04/11 05:19:24;;;;;;;22.25;12.15;;;;;;;7.24;46.72;100545.56;3498226;28;20079;-50
2021/04/11 05:21:11;;;;;;;21.80;11.73;;;;;;;7.38;46.09;100550.41;3496104;28;20202;-50
2021/04/11 05:22:58;;;;;;;23.70;13.15;;;;;;;7.48;45.93;100544.81;3495503;28;20045;-51
2021/04/11 05:24:42;;;;;;;24.35;12.20;;;;;;;7.61;45.77;100544.47;3484582;28;20052;-46
2021/04/11 05:26:31;;;;;;;19.40;12.23;;;;;;;7.73;45.25;100545.78;3492436;28;20056;-46
2021/04/11 05:28:21;;;;;;;24.45;11.55;;;;;;;7.84;44.78;100550.53;3496899;28;20425;-47
2021/04/11 05:30:08;;;;;;;21.42;11.50;;;;;;;7.98;44.35;100547.59;3496491;28;20113;-45
2021/04/11 05:31:51;;;;;;;19.13;11.02;;;;;;;8.09;44.66;100548.00;3495358;28;20056;-45
2021/04/11 05:33:35;;;;;;;19.60;10.87;;;;;;;8.21;44.39;100549.34;3498046;28;20205;-45
2021/04/11 05:35:18;;;;;;;19.23;12.15;;;;;;;8.32;43.93;100544.56;3494579;28;20288;-45
2021/04/11 05:37:04;;;;;;;17.45;10.25;;;;;;;8.44;43.22;100546.72;3495507;28;20122;-49
2021/04/11 05:39:00;;;;;;;25.42;12.55;;;;;;;8.57;43.33;100546.38;3497013;28;20507;-53
2021/04/11 05:40:47;;;;;;;21.70;10.85;;;;;;;8.66;42.92;100545.81;3494081;28;20040;-51
2021/04/11 05:42:37;;;;;;;19.45;10.40;;;;;;;8.76;42.60;100547.00;3497333;28;20536;-50
2021/04/11 05:44:25;;;;;;;18.25;11.90;;;;;;;8.84;41.87;100545.56;3494331;28;20051;-46
2021/04/11 05:46:11;;;;;;;20.23;11.63;;;;;;;8.93;41.16;100548.47;3495484;28;20045;-45
2021/04/11 05:48:04;;;;;;;24.08;13.82;;;;;;;9.03;42.47;100541.91;3497185;28;20520;-45
2021/04/11 05:49:51;;;;;;;26.60;13.10;;;;;;;9.15;41.48;100544.91;3495089;28;20044;-46
2021/04/11 05:51:38;;;;;;;22.48;11.55;;;;;;;9.25;41.15;100552.97;3497021;28;20103;-45
2021/04/11 05:53:22;;;;;;;21.23;11.75;;;;;;;9.34;41.51;100551.56;3495242;28;20505;-45
2021/04/11 05:55:08;;;;;;;23.73;11.80;;;;;;;9.44;40.76;100554.50;3495120;28;20573;-45
2021/04/11 05:56:55;;;;;;;29.42;11.60;;;;;;;9.49;40.06;100548.63;3496534;28;20557;-45
2021/04/11 05:58:46;;;;;;;27.25;12.38;;;;;;;9.57;40.00;100555.78;3494882;28;20429;-45
2021/04/11 06:00:32;;;;;;;28.00;13.48;;;;;;;9.67;40.74;100550.06;3496544;28;20506;-46
2021/04/11 06:02:20;;;;;;;30.63;15.30;;;;;;;9.77;40.85;100551.22;3495421;28;20076;-45
2021/04/11 06:04:07;;;;;;;23.08;12.25;;;;;;;9.81;39.71;100553.97;3495406;28;20053;-49
2021/04/11 06:06:00;;;;;;;27.63;15.48;;;;;;;9.92;40.42;100559.47;3496940;28;20532;-50
2021/04/11 06:07:49;;;;;;;23.98;12.65;;;;;;;10.03;40.46;100560.66;3494980;28;20052;-51
2021/04/11 06:09:35;;;;;;;22.83;11.98;;;;;;;10.11;39.77;100554.00;3496309;28;20053;-50
2021/04/11 06:11:22;;;;;;;21.58;10.90;;;;;;;10.22;39.44;100559.50;3496574;28;20545;-50
2021/04/11 06:13:08;;;;;;;18.80;10.65;;;;;;;10.35;38.28;100558.13;3493522;28;20110;-52
2021/04/11 06:14:57;;;;;;;19.50;10.98;;;;;;;10.43;38.22;100567.03;3497391;28;20075;-51
2021/04/11 06:16:38;;;;;;;19.73;10.77;;;;;;;10.50;37.98;100560.31;3494907;28;20505;-52
2021/04/11 06:18:21;;;;;;;20.40;11.48;;;;;;;10.53;38.45;100562.09;3496474;28;20064;-50
2021/04/11 06:20:05;;;;;;;21.38;10.88;;;;;;;10.65;39.06;100557.25;3495427;28;20060;-50
2021/04/11 06:21:54;;;;;;;21.85;10.38;;;;;;;10.81;38.63;100562.03;3495040;28;20052;-49
2021/04/11 06:23:44;;;;;;;22.95;11.45;;;;;;;10.93;38.18;100551.09;3496242;28;20056;-49
2021/04/11 06:25:32;;;;;;;24.85;12.95;;;;;;;11.07;37.89;100560.09;3494618;28;20048;-52
2021/04/11 06:27:37;;;;;;;22.75;12.77;;;;;;;11.23;37.44;100563.97;3496593;28;20049;-45
2021/04/11 06:29:24;;;;;;;39.22;16.60;;;;;;;11.31;36.86;100561.63;3496118;28;20052;-45
2021/04/11 06:31:10;;;;;;;24.98;11.77;;;;;;;11.34;36.55;100569.50;3494392;28;20501;-44
2021/04/11 06:32:55;;;;;;;22.27;12.18;;;;;;;11.49;36.44;100557.72;3496896;28;20464;-45
2021/04/11 06:34:41;;;;;;;17.30;10.82;;;;;;;11.61;36.29;100561.50;3494394;28;20040;-46
2021/04/11 06:36:28;;;;;;;18.98;10.73;;;;;;;11.71;36.48;100554.81;3494746;28;20063;-46
2021/04/11 06:38:13;;;;;;;20.10;11.75;;;;;;;11.71;36.13;100552.19;3496594;28;20045;-45
2021/04/11 06:39:57;;;;;;;21.35;11.73;;;;;;;11.77;36.53;100556.66;3494538;28;20083;-45
2021/04/11 06:42:02;;;;;;;;;;;;;;;11.80;36.00;100564.53;3497346;28;20048;-45
2021/04/11 06:44:22;;;;;;;17.13;10.43;;;;;;;11.91;36.31;100560.44;3452381;28;19925;-49
2021/04/11 06:46:10;;;;;;;18.13;10.88;;;;;;;11.99;35.47;100565.81;3459992;28;20052;-52
2021/04/11 06:48:38;;;;;;;20.90;10.85;;;;;;;12.10;36.25;100563.44;3496675;28;20056;-50
2021/04/11 06:50:29;;;;;;;25.80;12.95;;;;;;;12.17;36.03;100571.44;3496142;28;20110;-50
2021/04/11 06:52:37;;;;;;;23.33;11.65;;;;;;;12.36;36.15;100571.81;3493724;28;20151;-51
2021/04/11 06:54:40;;;;;;;23.58;12.63;;;;;;;12.48;34.96;100572.06;3494443;28;20049;-50
2021/04/11 06:56:44;;;;;;;16.58;10.15;;;;;;;12.69;35.20;100570.75;3482629;28;20084;-49
2021/04/11 06:58:36;;;;;;;14.70;9.65;;;;;;;12.85;35.04;100571.91;3493981;28;20052;-51
2021/04/11 07:00:42;;;;;;;20.75;9.77;;;;;;;13.02;34.32;100569.63;3494496;28;20422;-52
2021/04/11 07:03:09;;;;;;;17.67;10.02;;;;;;;13.16;33.70;100576.00;3482932;28;20048;-46
2021/04/11 07:05:14;;;;;;;18.92;10.10;;;;;;;13.25;34.18;100577.91;3495294;28;20053;-46
2021/04/11 07:07:30;;;;;;;19.33;9.98;;;;;;;13.40;33.24;100587.69;3494094;28;20051;-46
2021/04/11 07:09:55;;;;;;;15.40;9.02;;;;;;;13.48;34.28;100584.38;3494420;28;20048;-46
2021/04/11 07:12:11;;;;;;;14.02;9.25;;;;;;;13.68;33.03;100586.41;3483286;28;20068;-46
2021/04/11 07:14:18;;;;;;;19.63;9.27;;;;;;;13.93;32.09;100578.97;3488715;28;20052;-46
2021/04/11 07:16:30;;;;;;;15.13;8.25;;;;;;;13.89;30.49;100585.88;3493260;28;20059;-50
2021/04/11 07:18:39;;;;;;;13.48;8.25;;;;;;;13.80;31.37;100584.00;3494163;28;20141;-49
2021/04/11 07:20:53;;;;;;;13.35;7.82;;;;;;;13.81;32.07;100590.97;3495695;28;20044;-52
2021/04/11 07:23:03;;;;;;;16.20;7.97;;;;;;;13.78;30.78;100583.09;3496240;28;20048;-49
2021/04/11 07:25:12;;;;;;;13.05;7.82;;;;;;;13.77;31.51;100586.53;3493799;28;20048;-50
2021/04/11 07:27:03;;;;;;;13.15;8.13;;;;;;;13.92;32.61;100588.53;3494163;28;20044;-50
2021/04/11 07:28:59;;;;;;;13.20;8.02;;;;;;;14.16;31.67;100589.72;3482510;28;20426;-52
2021/04/11 07:30:47;;;;;;;18.20;9.73;;;;;;;14.36;31.35;100580.47;3493848;28;20443;-46
2021/04/11 07:33:00;;;;;;;16.45;10.40;;;;;;;14.59;31.70;100591.19;3494087;28;20054;-46
2021/04/11 07:35:02;;;;;;;19.50;9.85;;;;;;;14.78;30.00;100584.47;3482392;28;20056;-45
2021/04/11 07:37:24;;;;;;;16.95;9.07;;;;;;;14.96;30.65;100589.00;3493289;28;20106;-50
2021/04/11 07:39:21;;;;;;;13.18;8.68;;;;;;;15.00;30.71;100579.47;3439239;28;20738;-51
2021/04/11 07:41:20;;;;;;;14.30;7.40;;;;;;;15.28;30.84;100582.34;3472979;28;20083;-49
2021/04/11 07:43:24;;;;;;;12.40;7.70;;;;;;;15.53;29.87;100583.44;3495137;28;20102;-52
2021/04/11 07:45:25;;;;;;;10.55;6.95;;;;;;;15.72;28.84;100582.75;3493794;28;20076;-51
2021/04/11 07:47:19;;;;;;;10.05;6.30;;;;;;;15.88;27.45;100580.25;3495767;28;20050;-51
2021/04/11 07:49:40;;;;;;;12.93;8.02;;;;;;;15.98;28.01;100577.69;3495439;28;20060;-48
2021/04/11 07:51:48;;;;;;;13.52;7.13;;;;;;;16.00;28.38;100579.44;3493524;28;20050;-49
2021/04/11 07:53:49;;;;;;;10.55;7.07;;;;;;;16.08;27.36;100580.34;3493970;28;20037;-49
2021/04/11 07:55:41;;;;;;;9.73;6.68;;;;;;;16.06;28.10;100579.47;3482218;28;20497;-50
2021/04/11 07:57:34;;;;;;;10.18;6.15;;;;;;;16.19;30.34;100580.41;3491999;28;20049;-49
2021/04/11 07:59:34;;;;;;;10.40;6.82;;;;;;;16.33;29.35;100574.38;3493870;28;20083;-52
2021/04/11 08:01:32;;;;;;;11.45;6.53;;;;;;;16.48;28.35;100577.94;3495492;28;20052;-49
2021/04/11 08:03:22;;;;;;;12.98;6.53;;;;;;;16.58;27.02;100571.84;3493616;28;20044;-49
2021/04/11 08:05:27;;;;;;;8.32;5.68;;;;;;;16.63;28.65;100582.34;3494520;28;20075;-46
2021/04/11 08:07:18;;;;;;;9.68;5.78;;;;;;;16.45;26.69;100575.31;3494953;28;20041;-49
2021/04/11 08:09:16;;;;;;;10.10;6.07;;;;;;;16.28;25.50;100572.59;3493736;28;20048;-50
2021/04/11 08:11:32;;;;;;;12.15;5.82;;;;;;;16.14;26.81;100577.75;3494397;28;20049;-47
2021/04/11 08:13:34;;;;;;;9.63;5.05;;;;;;;16.24;25.35;100576.09;3440296;28;20051;-48
2021/04/11 08:15:22;;;;;;;11.32;5.63;;;;;;;16.36;26.76;100579.63;3493122;28;20148;-45
2021/04/11 08:17:14;;;;;;;7.20;4.55;;;;;;;16.35;26.39;100570.03;3494206;28;20049;-48
2021/04/11 08:19:18;;;;;;;10.90;5.68;;;;;;;16.29;24.62;100574.38;3495627;28;20106;-51
2021/04/11 08:21:21;;;;;;;10.63;6.22;;;;;;;16.14;26.66;100576.03;3493274;28;20424;-49